PWSweather.com
Personal Weather Stations
Station Observations
RTINEZ
TerrassaES 08226

TerrassaES 08226

Lat: 41.5762194, Lon: 2.028993700000001

Elevation: 367

Station Type: Watson W8681

www.rtinez.cat

High Low Average
Temperature 78.6°F25.9°C 61.3°F16.3°C 70.3°F21.3°C
Dew Point 59.6°F15.3°C 34.6°F1.4°C 46.8°F8.2°C
Winds 15.2 mph 24.5 kmh Calm Calm 6.0 mph SSW9.7 kmh SSW
Wind Gusts 22.8 mph36.7 kmh 2.2 mph3.5 kmh 11.0 mph17.7 kmh
Humidity 73% 25% 45%
Pressure 30.10 in1019.3 mb 30.03 in1016.9 mb -
Precipitation 0.00 in0.0 mm - -
Hour Temp Dew Point Humidity Winds Wind Gusts Pressure Precip Precip Rate Daily Precip Total
12:00 AM 68.9°F20.5°C 58.7°F14.8°C 70% 2.2 mph WNW3.5 kmh WNW 9.2 mph14.8 kmh 30.07 in1018.3 mb 0.00 in0.0 mm 0.00 in0.0 mm 0.00 in0.0 mm
12:15 AM 68.7°F20.4°C 59.0°F15.0°C 71% 3.8 mph W6.1 kmh W 8.3 mph13.4 kmh 30.06 in1017.9 mb 0.00 in0.0 mm 0.00 in0.0 mm 0.00 in0.0 mm
12:30 AM 68.4°F20.2°C 59.4°F15.2°C 73% 8.3 mph NW13.4 kmh NW 9.8 mph15.8 kmh 30.06 in1017.9 mb 0.00 in0.0 mm 0.00 in0.0 mm 0.00 in0.0 mm
12:45 AM 68.5°F20.3°C 59.6°F15.3°C 73% 4.5 mph WNW7.2 kmh WNW 9.8 mph15.8 kmh 30.06 in1017.9 mb 0.00 in0.0 mm 0.00 in0.0 mm 0.00 in0.0 mm
01:00 AM 68.4°F20.2°C 59.4°F15.2°C 73% 5.4 mph WNW8.7 kmh WNW 12.1 mph19.5 kmh 30.06 in1017.9 mb 0.00 in0.0 mm 0.00 in0.0 mm 0.00 in0.0 mm
01:15 AM 68.4°F20.2°C 49.0°F9.4°C 50% 10.7 mph NW17.2 kmh NW 15.2 mph24.5 kmh 30.06 in1017.9 mb 0.00 in0.0 mm 0.00 in0.0 mm 0.00 in0.0 mm
01:30 AM 68.2°F20.1°C 43.0°F6.1°C 40% 13.0 mph NW20.9 kmh NW 17.4 mph28.0 kmh 30.06 in1017.9 mb 0.00 in0.0 mm 0.00 in0.0 mm 0.00 in0.0 mm
01:45 AM 67.8°F19.9°C 43.9°F6.6°C 42% 9.8 mph NW15.8 kmh NW 14.5 mph23.3 kmh 30.05 in1017.6 mb 0.00 in0.0 mm 0.00 in0.0 mm 0.00 in0.0 mm
02:00 AM 67.8°F19.9°C 42.6°F5.9°C 40% 11.4 mph NW18.3 kmh NW 14.5 mph23.3 kmh 30.05 in1017.6 mb 0.00 in0.0 mm 0.00 in0.0 mm 0.00 in0.0 mm
02:15 AM 67.5°F19.7°C 43.0°F6.1°C 41% 9.2 mph NW14.8 kmh NW 13.6 mph21.9 kmh 30.06 in1017.9 mb 0.00 in0.0 mm 0.00 in0.0 mm 0.00 in0.0 mm
02:30 AM 67.5°F19.7°C 41.7°F5.4°C 39% 4.5 mph NW7.2 kmh NW 12.1 mph19.5 kmh 30.05 in1017.6 mb 0.00 in0.0 mm 0.00 in0.0 mm 0.00 in0.0 mm
02:45 AM 67.1°F19.5°C 42.6°F5.9°C 41% 1.6 mph NW2.6 kmh NW 5.4 mph8.7 kmh 30.06 in1017.9 mb 0.00 in0.0 mm 0.00 in0.0 mm 0.00 in0.0 mm
03:00 AM 66.2°F19.0°C 41.8°F5.4°C 41% 3.8 mph NE6.1 kmh NE 6.0 mph9.7 kmh 30.05 in1017.6 mb 0.00 in0.0 mm 0.00 in0.0 mm 0.00 in0.0 mm
03:15 AM 65.7°F18.7°C 42.0°F5.6°C 42% 3.8 mph N6.1 kmh N 10.7 mph17.2 kmh 30.06 in1017.9 mb 0.00 in0.0 mm 0.00 in0.0 mm 0.00 in0.0 mm
03:30 AM 65.3°F18.5°C 42.2°F5.7°C 43% 10.7 mph N17.2 kmh N 13.6 mph21.9 kmh 30.05 in1017.6 mb 0.00 in0.0 mm 0.00 in0.0 mm 0.00 in0.0 mm
03:45 AM 64.8°F18.2°C 42.4°F5.8°C 44% 6.9 mph NNW11.1 kmh NNW 14.5 mph23.3 kmh 30.06 in1017.9 mb 0.00 in0.0 mm 0.00 in0.0 mm 0.00 in0.0 mm
04:00 AM 64.4°F18.0°C 42.0°F5.6°C 44% 9.2 mph NNW14.8 kmh NNW 11.4 mph18.3 kmh 30.06 in1017.9 mb 0.00 in0.0 mm 0.00 in0.0 mm 0.00 in0.0 mm
04:15 AM 64.0°F17.8°C 43.4°F6.3°C 47% 6.9 mph NW11.1 kmh NW 15.9 mph25.6 kmh 30.05 in1017.6 mb 0.00 in0.0 mm 0.00 in0.0 mm 0.00 in0.0 mm
04:30 AM 63.5°F17.5°C 43.5°F6.4°C 48% 6.9 mph NW11.1 kmh NW 11.4 mph18.3 kmh 30.06 in1017.9 mb 0.00 in0.0 mm 0.00 in0.0 mm 0.00 in0.0 mm
04:45 AM 62.8°F17.1°C 43.4°F6.3°C 49% 10.7 mph NW17.2 kmh NW 12.1 mph19.5 kmh 30.07 in1018.3 mb 0.00 in0.0 mm 0.00 in0.0 mm 0.00 in0.0 mm
05:00 AM 62.4°F16.9°C 44.1°F6.7°C 51% 7.6 mph NNW12.2 kmh NNW 13.0 mph20.9 kmh 30.05 in1017.6 mb 0.00 in0.0 mm 0.00 in0.0 mm 0.00 in0.0 mm
05:15 AM 61.9°F16.6°C 44.1°F6.7°C 52% 9.2 mph N14.8 kmh N 15.9 mph25.6 kmh 30.06 in1017.9 mb 0.00 in0.0 mm 0.00 in0.0 mm 0.00 in0.0 mm
05:30 AM 61.9°F16.6°C 43.6°F6.4°C 51% 6.0 mph NW9.7 kmh NW 14.5 mph23.3 kmh 30.06 in1017.9 mb 0.00 in0.0 mm 0.00 in0.0 mm 0.00 in0.0 mm
05:45 AM 62.1°F16.7°C 43.7°F6.5°C 51% 3.1 mph NNW5.0 kmh NNW 7.6 mph12.2 kmh 30.06 in1017.9 mb 0.00 in0.0 mm 0.00 in0.0 mm 0.00 in0.0 mm
06:00 AM 61.7°F16.5°C 43.9°F6.6°C 52% 6.9 mph N11.1 kmh N 9.8 mph15.8 kmh 30.06 in1017.9 mb 0.00 in0.0 mm 0.00 in0.0 mm 0.00 in0.0 mm
06:15 AM 61.5°F16.4°C 43.7°F6.5°C 52% 5.4 mph NNW8.7 kmh NNW 9.2 mph14.8 kmh 30.07 in1018.3 mb 0.00 in0.0 mm 0.00 in0.0 mm 0.00 in0.0 mm
06:30 AM 61.3°F16.3°C 44.1°F6.7°C 53% 2.2 mph N3.5 kmh N 8.3 mph13.4 kmh 30.07 in1018.3 mb 0.00 in0.0 mm 0.00 in0.0 mm 0.00 in0.0 mm
06:45 AM 61.9°F16.6°C 44.6°F7.0°C 53% 2.2 mph N3.5 kmh N 7.6 mph12.2 kmh 30.07 in1018.3 mb 0.00 in0.0 mm 0.00 in0.0 mm 0.00 in0.0 mm
07:00 AM 62.8°F17.1°C 43.9°F6.6°C 50% 4.5 mph N7.2 kmh N 6.9 mph11.1 kmh 30.08 in1018.6 mb 0.00 in0.0 mm 0.00 in0.0 mm 0.00 in0.0 mm
07:15 AM 62.1°F16.7°C 43.7°F6.5°C 51% 3.1 mph NW5.0 kmh NW 9.2 mph14.8 kmh 30.08 in1018.6 mb 0.00 in0.0 mm 0.00 in0.0 mm 0.00 in0.0 mm
07:30 AM 62.2°F16.8°C 43.9°F6.6°C 51% 3.1 mph N5.0 kmh N 7.6 mph12.2 kmh 30.08 in1018.6 mb 0.00 in0.0 mm 0.00 in0.0 mm 0.00 in0.0 mm
07:45 AM 62.4°F16.9°C 44.1°F6.7°C 51% 2.2 mph NNE3.5 kmh NNE 6.0 mph9.7 kmh 30.09 in1019.0 mb 0.00 in0.0 mm 0.00 in0.0 mm 0.00 in0.0 mm
08:00 AM 68.2°F20.1°C 45.5°F7.5°C 44% Calm Calm 2.2 mph3.5 kmh 30.09 in1019.0 mb 0.00 in0.0 mm 0.00 in0.0 mm 0.00 in0.0 mm
08:15 AM 69.8°F21.0°C 43.8°F6.6°C 39% 0.7 mph SE1.1 kmh SE 3.8 mph6.1 kmh 30.08 in1018.6 mb 0.00 in0.0 mm 0.00 in0.0 mm 0.00 in0.0 mm
08:30 AM 72.7°F22.6°C 42.7°F5.9°C 34% 1.6 mph WNW2.6 kmh WNW 6.0 mph9.7 kmh 30.08 in1018.6 mb 0.00 in0.0 mm 0.00 in0.0 mm 0.00 in0.0 mm
08:45 AM 74.7°F23.7°C 44.5°F6.9°C 34% 1.6 mph E2.6 kmh E 3.8 mph6.1 kmh 30.09 in1019.0 mb 0.00 in0.0 mm 0.00 in0.0 mm 0.00 in0.0 mm
09:00 AM 73.8°F23.2°C 44.4°F6.9°C 35% 1.6 mph E2.6 kmh E 5.4 mph8.7 kmh 30.09 in1019.0 mb 0.00 in0.0 mm 0.00 in0.0 mm 0.00 in0.0 mm
09:15 AM 75.2°F24.0°C 44.2°F6.8°C 33% 3.8 mph SE6.1 kmh SE 6.0 mph9.7 kmh 30.09 in1019.0 mb 0.00 in0.0 mm 0.00 in0.0 mm 0.00 in0.0 mm
09:30 AM 73.6°F23.1°C 44.3°F6.8°C 35% 2.2 mph SE3.5 kmh SE 5.4 mph8.7 kmh 30.09 in1019.0 mb 0.00 in0.0 mm 0.00 in0.0 mm 0.00 in0.0 mm
09:45 AM 74.7°F23.7°C 42.9°F6.1°C 32% 2.2 mph WNW3.5 kmh WNW 7.6 mph12.2 kmh 30.09 in1019.0 mb 0.00 in0.0 mm 0.00 in0.0 mm 0.00 in0.0 mm
10:00 AM 72.3°F22.4°C 38.3°F3.5°C 29% 3.8 mph NW6.1 kmh NW 8.3 mph13.4 kmh 30.09 in1019.0 mb 0.00 in0.0 mm 0.00 in0.0 mm 0.00 in0.0 mm
10:15 AM 75.2°F24.0°C 38.0°F3.3°C 26% 5.4 mph W8.7 kmh W 14.5 mph23.3 kmh 30.09 in1019.0 mb 0.00 in0.0 mm 0.00 in0.0 mm 0.00 in0.0 mm
10:30 AM 72.3°F22.4°C 34.6°F1.4°C 25% 6.0 mph NW9.7 kmh NW 11.4 mph18.3 kmh 30.09 in1019.0 mb 0.00 in0.0 mm 0.00 in0.0 mm 0.00 in0.0 mm
10:45 AM 75.0°F23.9°C 39.7°F4.3°C 28% 6.9 mph WSW11.1 kmh WSW 13.6 mph21.9 kmh 30.09 in1019.0 mb 0.00 in0.0 mm 0.00 in0.0 mm 0.00 in0.0 mm
11:00 AM 72.7°F22.6°C 37.7°F3.2°C 28% 9.2 mph WSW14.8 kmh WSW 15.2 mph24.5 kmh 30.08 in1018.6 mb 0.00 in0.0 mm 0.00 in0.0 mm 0.00 in0.0 mm
11:15 AM 75.2°F24.0°C 40.8°F4.9°C 29% 7.6 mph NW12.2 kmh NW 16.8 mph27.0 kmh 30.08 in1018.6 mb 0.00 in0.0 mm 0.00 in0.0 mm 0.00 in0.0 mm
11:30 AM 75.0°F23.9°C 40.6°F4.8°C 29% 5.4 mph W8.7 kmh W 16.8 mph27.0 kmh 30.07 in1018.3 mb 0.00 in0.0 mm 0.00 in0.0 mm 0.00 in0.0 mm
11:45 AM 75.6°F24.2°C 38.3°F3.5°C 26% 10.7 mph W17.2 kmh W 19.0 mph30.6 kmh 30.08 in1018.6 mb 0.00 in0.0 mm 0.00 in0.0 mm 0.00 in0.0 mm
12:00 PM 75.9°F24.4°C 43.1°F6.2°C 31% 2.2 mph WSW3.5 kmh WSW 17.4 mph28.0 kmh 30.08 in1018.6 mb 0.00 in0.0 mm 0.00 in0.0 mm 0.00 in0.0 mm
12:15 PM 75.4°F24.1°C 42.7°F5.9°C 31% 12.1 mph WSW19.5 kmh WSW 22.1 mph35.6 kmh 30.08 in1018.6 mb 0.00 in0.0 mm 0.00 in0.0 mm 0.00 in0.0 mm
12:30 PM 75.4°F24.1°C 42.7°F5.9°C 31% 15.2 mph WSW24.5 kmh WSW 18.3 mph29.5 kmh 30.07 in1018.3 mb 0.00 in0.0 mm 0.00 in0.0 mm 0.00 in0.0 mm
12:45 PM 76.5°F24.7°C 43.6°F6.4°C 31% 15.2 mph WNW24.5 kmh WNW 22.8 mph36.7 kmh 30.07 in1018.3 mb 0.00 in0.0 mm 0.00 in0.0 mm 0.00 in0.0 mm
01:00 PM 77.2°F25.1°C 43.4°F6.3°C 30% 13.0 mph W20.9 kmh W 20.6 mph33.2 kmh 30.08 in1018.6 mb 0.00 in0.0 mm 0.00 in0.0 mm 0.00 in0.0 mm
01:15 PM 77.2°F25.1°C 43.4°F6.3°C 30% 6.9 mph W11.1 kmh W 22.8 mph36.7 kmh 30.07 in1018.3 mb 0.00 in0.0 mm 0.00 in0.0 mm 0.00 in0.0 mm
01:30 PM 77.2°F25.1°C 41.6°F5.3°C 28% 6.9 mph W11.1 kmh W 16.8 mph27.0 kmh 30.07 in1018.3 mb 0.00 in0.0 mm 0.00 in0.0 mm 0.00 in0.0 mm
01:45 PM 78.6°F25.9°C 44.6°F7.0°C 30% 2.2 mph S3.5 kmh S 9.8 mph15.8 kmh 30.07 in1018.3 mb 0.00 in0.0 mm 0.00 in0.0 mm 0.00 in0.0 mm
02:00 PM 75.7°F24.3°C 55.3°F12.9°C 49% 11.4 mph SE18.3 kmh SE 16.8 mph27.0 kmh 30.06 in1017.9 mb 0.00 in0.0 mm 0.00 in0.0 mm 0.00 in0.0 mm
02:15 PM 74.5°F23.6°C 57.3°F14.1°C 55% 10.7 mph SE17.2 kmh SE 20.6 mph33.2 kmh 30.07 in1018.3 mb 0.00 in0.0 mm 0.00 in0.0 mm 0.00 in0.0 mm
02:30 PM 75.6°F24.2°C 56.7°F13.7°C 52% 10.7 mph SE17.2 kmh SE 16.8 mph27.0 kmh 30.06 in1017.9 mb 0.00 in0.0 mm 0.00 in0.0 mm 0.00 in0.0 mm
02:45 PM 76.1°F24.5°C 55.0°F12.8°C 48% 8.3 mph S13.4 kmh S 16.8 mph27.0 kmh 30.05 in1017.6 mb 0.00 in0.0 mm 0.00 in0.0 mm 0.00 in0.0 mm
03:00 PM 76.5°F24.7°C 52.3°F11.3°C 43% 8.3 mph SE13.4 kmh SE 17.4 mph28.0 kmh 30.04 in1017.3 mb 0.00 in0.0 mm 0.00 in0.0 mm 0.00 in0.0 mm
03:15 PM 77.2°F25.1°C 45.1°F7.3°C 32% 5.4 mph SE8.7 kmh SE 11.4 mph18.3 kmh 30.04 in1017.3 mb 0.00 in0.0 mm 0.00 in0.0 mm 0.00 in0.0 mm
03:30 PM 77.2°F25.1°C 44.2°F6.8°C 31% 6.9 mph SE11.1 kmh SE 13.6 mph21.9 kmh 30.04 in1017.3 mb 0.00 in0.0 mm 0.00 in0.0 mm 0.00 in0.0 mm
03:45 PM 77.2°F25.1°C 44.2°F6.8°C 31% 5.4 mph S8.7 kmh S 15.9 mph25.6 kmh 30.04 in1017.3 mb 0.00 in0.0 mm 0.00 in0.0 mm 0.00 in0.0 mm
04:00 PM 76.8°F24.9°C 44.8°F7.1°C 32% 6.9 mph S11.1 kmh S 13.6 mph21.9 kmh 30.04 in1017.3 mb 0.00 in0.0 mm 0.00 in0.0 mm 0.00 in0.0 mm
04:15 PM 77.0°F25.0°C 44.1°F6.7°C 31% 5.4 mph SSE8.7 kmh SSE 17.4 mph28.0 kmh 30.03 in1016.9 mb 0.00 in0.0 mm 0.00 in0.0 mm 0.00 in0.0 mm
04:30 PM 78.6°F25.9°C 45.5°F7.5°C 31% 8.3 mph SE13.4 kmh SE 12.1 mph19.5 kmh 30.03 in1016.9 mb 0.00 in0.0 mm 0.00 in0.0 mm 0.00 in0.0 mm
04:45 PM 76.8°F24.9°C 45.6°F7.6°C 33% 6.9 mph S11.1 kmh S 13.6 mph21.9 kmh 30.04 in1017.3 mb 0.00 in0.0 mm 0.00 in0.0 mm 0.00 in0.0 mm
05:00 PM 77.2°F25.1°C 45.1°F7.3°C 32% 3.1 mph SE5.0 kmh SE 9.8 mph15.8 kmh 30.04 in1017.3 mb 0.00 in0.0 mm 0.00 in0.0 mm 0.00 in0.0 mm
05:15 PM 76.5°F24.7°C 47.6°F8.7°C 36% 6.0 mph SE9.7 kmh SE 14.5 mph23.3 kmh 30.04 in1017.3 mb 0.00 in0.0 mm 0.00 in0.0 mm 0.00 in0.0 mm
05:30 PM 76.5°F24.7°C 46.8°F8.2°C 35% 6.0 mph SE9.7 kmh SE 13.0 mph20.9 kmh 30.04 in1017.3 mb 0.00 in0.0 mm 0.00 in0.0 mm 0.00 in0.0 mm
05:45 PM 76.3°F24.6°C 47.4°F8.6°C 36% 6.9 mph ESE11.1 kmh ESE 10.7 mph17.2 kmh 30.04 in1017.3 mb 0.00 in0.0 mm 0.00 in0.0 mm 0.00 in0.0 mm
06:00 PM 75.7°F24.3°C 49.7°F9.8°C 40% 6.0 mph ESE9.7 kmh ESE 9.2 mph14.8 kmh 30.04 in1017.3 mb 0.00 in0.0 mm 0.00 in0.0 mm 0.00 in0.0 mm
06:15 PM 75.4°F24.1°C 51.4°F10.8°C 43% 8.3 mph SE13.4 kmh SE 12.1 mph19.5 kmh 30.04 in1017.3 mb 0.00 in0.0 mm 0.00 in0.0 mm 0.00 in0.0 mm
06:30 PM 73.2°F22.9°C 51.2°F10.7°C 46% 6.0 mph E9.7 kmh E 10.7 mph17.2 kmh 30.05 in1017.6 mb 0.00 in0.0 mm 0.00 in0.0 mm 0.00 in0.0 mm
06:45 PM 72.1°F22.3°C 51.4°F10.8°C 48% 5.4 mph SE8.7 kmh SE 11.4 mph18.3 kmh 30.04 in1017.3 mb 0.00 in0.0 mm 0.00 in0.0 mm 0.00 in0.0 mm
07:00 PM 71.6°F22.0°C 51.5°F10.8°C 49% 5.4 mph ESE8.7 kmh ESE 8.3 mph13.4 kmh 30.05 in1017.6 mb 0.00 in0.0 mm 0.00 in0.0 mm 0.00 in0.0 mm
07:15 PM 70.9°F21.6°C 51.9°F11.1°C 51% 4.5 mph E7.2 kmh E 6.9 mph11.1 kmh 30.06 in1017.9 mb 0.00 in0.0 mm 0.00 in0.0 mm 0.00 in0.0 mm
07:30 PM 70.3°F21.3°C 50.8°F10.4°C 50% 6.0 mph SE9.7 kmh SE 9.8 mph15.8 kmh 30.06 in1017.9 mb 0.00 in0.0 mm 0.00 in0.0 mm 0.00 in0.0 mm
07:45 PM 70.0°F21.1°C 50.5°F10.3°C 50% 3.1 mph SE5.0 kmh SE 9.2 mph14.8 kmh 30.07 in1018.3 mb 0.00 in0.0 mm 0.00 in0.0 mm 0.00 in0.0 mm
08:00 PM 69.8°F21.0°C 50.9°F10.5°C 51% 2.2 mph SE3.5 kmh SE 6.9 mph11.1 kmh 30.07 in1018.3 mb 0.00 in0.0 mm 0.00 in0.0 mm 0.00 in0.0 mm
08:15 PM 68.9°F20.5°C 51.1°F10.6°C 53% 0.7 mph E1.1 kmh E 3.1 mph5.0 kmh 30.08 in1018.6 mb 0.00 in0.0 mm 0.00 in0.0 mm 0.00 in0.0 mm
08:30 PM 68.5°F20.3°C 51.3°F10.7°C 54% 1.6 mph ENE2.6 kmh ENE 3.8 mph6.1 kmh 30.08 in1018.6 mb 0.00 in0.0 mm 0.00 in0.0 mm 0.00 in0.0 mm
08:45 PM 68.4°F20.2°C 51.6°F10.9°C 55% 3.1 mph E5.0 kmh E 5.4 mph8.7 kmh 30.09 in1019.0 mb 0.00 in0.0 mm 0.00 in0.0 mm 0.00 in0.0 mm
09:00 PM 68.2°F20.1°C 51.4°F10.8°C 55% 3.1 mph ENE5.0 kmh ENE 4.5 mph7.2 kmh 30.08 in1018.6 mb 0.00 in0.0 mm 0.00 in0.0 mm 0.00 in0.0 mm
09:15 PM 67.8°F19.9°C 52.1°F11.2°C 57% 3.1 mph ENE5.0 kmh ENE 6.0 mph9.7 kmh 30.09 in1019.0 mb 0.00 in0.0 mm 0.00 in0.0 mm 0.00 in0.0 mm
09:30 PM 67.6°F19.8°C 51.9°F11.1°C 57% 3.8 mph NE6.1 kmh NE 6.0 mph9.7 kmh 30.10 in1019.3 mb 0.00 in0.0 mm 0.00 in0.0 mm 0.00 in0.0 mm
09:45 PM 67.3°F19.6°C 52.0°F11.1°C 58% 2.2 mph ENE3.5 kmh ENE 6.0 mph9.7 kmh 30.10 in1019.3 mb 0.00 in0.0 mm 0.00 in0.0 mm 0.00 in0.0 mm
10:00 PM 67.1°F19.5°C 52.3°F11.3°C 59% 5.4 mph ENE8.7 kmh ENE 8.3 mph13.4 kmh 30.09 in1019.0 mb 0.00 in0.0 mm 0.00 in0.0 mm 0.00 in0.0 mm
10:15 PM 66.7°F19.3°C 52.4°F11.3°C 60% 3.8 mph ENE6.1 kmh ENE 7.6 mph12.2 kmh 30.10 in1019.3 mb 0.00 in0.0 mm 0.00 in0.0 mm 0.00 in0.0 mm
10:30 PM 66.4°F19.1°C 52.5°F11.4°C 61% 4.5 mph E7.2 kmh E 7.6 mph12.2 kmh 30.10 in1019.3 mb 0.00 in0.0 mm 0.00 in0.0 mm 0.00 in0.0 mm
10:45 PM 66.4°F19.1°C 52.5°F11.4°C 61% 3.8 mph NE6.1 kmh NE 7.6 mph12.2 kmh 30.10 in1019.3 mb 0.00 in0.0 mm 0.00 in0.0 mm 0.00 in0.0 mm
11:00 PM 66.4°F19.1°C 52.5°F11.4°C 61% 3.1 mph ENE5.0 kmh ENE 8.3 mph13.4 kmh 30.10 in1019.3 mb 0.00 in0.0 mm 0.00 in0.0 mm 0.00 in0.0 mm
11:15 PM 66.6°F19.2°C 52.3°F11.3°C 60% 4.5 mph NE7.2 kmh NE 6.9 mph11.1 kmh 30.10 in1019.3 mb 0.00 in0.0 mm 0.00 in0.0 mm 0.00 in0.0 mm
11:30 PM 66.6°F19.2°C 52.3°F11.3°C 60% 4.5 mph NE7.2 kmh NE 9.2 mph14.8 kmh 30.10 in1019.3 mb 0.00 in0.0 mm 0.00 in0.0 mm 0.00 in0.0 mm
11:45 PM 66.6°F19.2°C 52.3°F11.3°C 60% 3.8 mph ENE6.1 kmh ENE 8.3 mph13.4 kmh 30.10 in1019.3 mb 0.00 in0.0 mm 0.00 in0.0 mm 0.00 in0.0 mm